createdAt,value
2019-03-06T00:01:37.386Z,8.67
2019-03-06T00:04:05.813Z,8.20
2019-03-06T00:06:53.300Z,9.00
2019-03-06T00:09:21.709Z,9.97
2019-03-06T00:11:50.103Z,9.57
2019-03-06T00:14:18.513Z,10.00
2019-03-06T00:16:46.906Z,9.77
2019-03-06T00:19:34.560Z,9.57
2019-03-06T00:22:02.954Z,9.50
2019-03-06T00:24:31.363Z,10.50
2019-03-06T00:26:59.765Z,8.83
2019-03-06T00:29:28.172Z,11.00
2019-03-06T00:31:56.576Z,10.73
2019-03-06T00:36:59.448Z,11.43
2019-03-06T00:42:27.600Z,10.00
2019-03-06T00:45:15.125Z,8.90
2019-03-06T00:48:02.860Z,9.90
2019-03-06T00:50:31.274Z,11.30
2019-03-06T00:53:01.393Z,10.73
2019-03-06T00:55:29.795Z,10.47
2019-03-06T00:57:58.189Z,9.97
2019-03-06T01:01:06.512Z,10.87
2019-03-06T01:03:34.918Z,11.23
2019-03-06T01:06:22.446Z,10.03
2019-03-06T01:08:50.921Z,10.00
2019-03-06T01:11:38.743Z,10.63
2019-03-06T01:16:54.593Z,10.40
2019-03-06T01:19:23.001Z,9.77
2019-03-06T01:21:51.395Z,11.13
2019-03-06T01:24:19.803Z,10.40
2019-03-06T01:26:49.933Z,10.23
2019-03-06T01:29:18.316Z,10.20
2019-03-06T01:32:05.970Z,9.90
2019-03-06T01:34:53.494Z,9.77
2019-03-06T01:40:30.099Z,9.80
2019-03-06T01:43:17.848Z,9.80
2019-03-06T01:45:46.260Z,10.70
2019-03-06T01:48:16.379Z,10.37
2019-03-06T01:51:04.044Z,11.13
2019-03-06T01:53:51.556Z,9.93
2019-03-06T01:56:39.079Z,10.00
2019-03-06T01:59:07.479Z,10.10
2019-03-06T02:01:55.228Z,9.57
2019-03-06T02:04:23.641Z,10.33
2019-03-06T02:07:11.150Z,10.87
2019-03-06T02:09:58.864Z,9.93
2019-03-06T02:12:46.607Z,11.63
2019-03-06T02:15:54.925Z,10.20
2019-03-06T02:18:42.568Z,11.40
2019-03-06T02:21:50.876Z,10.47
2019-03-06T02:24:20.987Z,10.80
2019-03-06T02:27:08.639Z,10.93
2019-03-06T02:32:24.490Z,11.50
2019-03-06T02:37:40.331Z,12.40
2019-03-06T02:40:50.373Z,11.97
2019-03-06T02:43:19.007Z,11.10
2019-03-06T02:48:40.251Z,11.23
2019-03-06T02:51:28.144Z,11.27
2019-03-06T02:53:56.539Z,11.07
2019-03-06T02:56:44.439Z,11.93
2019-03-06T03:05:15.745Z,12.10
2019-03-06T03:10:18.143Z,12.10
2019-03-06T03:13:05.803Z,11.07
2019-03-06T03:18:21.647Z,11.93
2019-03-06T03:20:50.040Z,10.33
2019-03-06T03:23:37.697Z,11.37
2019-03-06T03:28:53.538Z,10.77
2019-03-06T03:31:21.944Z,10.63
2019-03-06T03:34:09.464Z,9.17
2019-03-06T03:36:57.122Z,11.23
2019-03-06T03:39:25.520Z,10.70
2019-03-06T03:41:53.913Z,10.97
2019-03-06T03:44:41.437Z,10.77
2019-03-06T03:47:28.956Z,11.57
2019-03-06T03:50:16.697Z,10.07
2019-03-06T03:55:59.480Z,11.50
2019-03-06T03:58:27.897Z,10.70
2019-03-06T04:00:56.368Z,11.63
2019-03-06T04:06:19.684Z,10.30
2019-03-06T04:09:07.445Z,10.30
2019-03-06T04:11:35.842Z,10.30
2019-03-06T04:16:58.653Z,10.80
2019-03-06T04:19:46.393Z,10.47
2019-03-06T04:22:14.797Z,10.50
2019-03-06T04:24:43.194Z,9.70
2019-03-06T04:27:30.840Z,9.50
2019-03-06T04:29:59.232Z,10.10
2019-03-06T04:32:27.634Z,8.60
2019-03-06T04:35:15.153Z,9.53
2019-03-06T04:37:43.586Z,9.80
2019-03-06T04:40:31.292Z,9.40
2019-03-06T04:45:33.577Z,9.07
2019-03-06T04:48:01.984Z,8.60
2019-03-06T04:50:30.371Z,9.40
2019-03-06T04:55:33.004Z,7.93
2019-03-06T04:58:01.417Z,8.67
2019-03-06T05:00:49.366Z,8.70
2019-03-06T05:03:18.037Z,8.17
2019-03-06T05:06:05.666Z,9.00
2019-03-06T05:08:35.790Z,9.47
2019-03-06T05:11:04.177Z,9.00
2019-03-06T05:13:51.825Z,9.17
2019-03-06T05:16:58.595Z,8.60
2019-03-06T05:19:26.994Z,7.30
2019-03-06T05:22:14.635Z,8.53
2019-03-06T05:24:43.065Z,9.13
2019-03-06T05:27:30.780Z,8.27
2019-03-06T05:30:20.024Z,8.93
2019-03-06T05:33:28.735Z,9.33
2019-03-06T05:36:37.109Z,8.67
2019-03-06T05:39:45.437Z,9.03
2019-03-06T05:42:32.961Z,9.33
2019-03-06T05:45:20.641Z,9.50
2019-03-06T05:47:49.050Z,8.40
2019-03-06T05:50:20.357Z,8.33
2019-03-06T05:52:49.317Z,7.80
2019-03-06T05:55:36.858Z,7.80
2019-03-06T06:01:00.443Z,9.17
2019-03-06T06:03:28.874Z,9.50
2019-03-06T06:06:16.650Z,8.00
2019-03-06T06:08:45.071Z,8.30
2019-03-06T06:14:00.930Z,7.97
2019-03-06T06:16:48.628Z,8.60
2019-03-06T06:19:17.046Z,7.83
2019-03-06T06:22:04.570Z,9.27
2019-03-06T06:24:33.015Z,8.40
2019-03-06T06:27:01.417Z,9.70
2019-03-06T06:29:49.218Z,8.67
2019-03-06T06:32:17.630Z,8.70
2019-03-06T06:34:46.073Z,8.53
2019-03-06T06:37:33.714Z,9.07
2019-03-06T06:40:21.366Z,8.57
2019-03-06T06:43:09.007Z,9.00
2019-03-06T06:45:56.658Z,9.33
2019-03-06T06:49:04.965Z,9.10
2019-03-06T06:52:11.950Z,9.80
2019-03-06T06:55:20.275Z,9.40
2019-03-06T06:58:31.388Z,8.93
2019-03-06T07:01:37.332Z,10.00
2019-03-06T07:05:03.447Z,8.50
2019-03-06T07:07:50.960Z,9.90
2019-03-06T07:10:38.662Z,8.90
2019-03-06T07:16:34.583Z,9.80
2019-03-06T07:19:22.114Z,10.80
2019-03-06T07:22:28.877Z,11.20
2019-03-06T07:25:16.401Z,11.43
2019-03-06T07:30:52.998Z,12.33
2019-03-06T07:33:40.514Z,11.07
2019-03-06T07:41:42.582Z,11.80
2019-03-06T07:47:19.174Z,10.40
2019-03-06T07:50:27.487Z,11.40
2019-03-06T07:53:37.832Z,11.17
2019-03-06T07:56:25.355Z,10.67
2019-03-06T07:59:33.660Z,10.40
2019-03-06T08:02:42.031Z,12.50
2019-03-06T08:05:50.347Z,11.47
2019-03-06T08:08:18.747Z,10.43
2019-03-06T08:10:47.157Z,12.13
2019-03-06T08:13:34.674Z,11.00
2019-03-06T08:19:16.585Z,12.90
2019-03-06T08:22:24.896Z,11.97
2019-03-06T08:27:42.675Z,11.63
2019-03-06T08:30:50.996Z,13.27
2019-03-06T08:36:06.836Z,11.60
2019-03-06T08:38:54.474Z,11.67
2019-03-06T08:41:22.879Z,11.73
2019-03-06T08:44:10.618Z,13.30
2019-03-06T08:46:58.140Z,13.17
2019-03-06T08:52:54.072Z,13.33
2019-03-06T08:56:00.848Z,13.10
2019-03-06T08:58:48.366Z,12.47
2019-03-06T09:02:00.516Z,13.97
2019-03-06T09:04:45.928Z,12.50
2019-03-06T09:07:33.694Z,14.43
2019-03-06T09:15:49.195Z,14.20
2019-03-06T09:24:10.717Z,14.27
2019-03-06T09:27:19.028Z,13.60
2019-03-06T09:30:13.246Z,11.73
2019-03-06T09:32:55.784Z,12.60
2019-03-06T09:35:43.294Z,13.10
2019-03-06T09:38:30.826Z,12.40
2019-03-06T09:41:18.507Z,12.37
2019-03-06T09:44:26.825Z,12.10
2019-03-06T09:47:14.347Z,13.10
2019-03-06T09:50:22.651Z,12.00
2019-03-06T09:53:10.170Z,13.27
2019-03-06T09:55:57.961Z,12.47
2019-03-06T10:01:40.491Z,12.87
2019-03-06T10:04:28.014Z,12.67
2019-03-06T10:07:15.717Z,11.50
2019-03-06T10:10:22.484Z,9.43
2019-03-06T10:16:04.679Z,10.87
2019-03-06T10:19:11.703Z,11.20
2019-03-06T10:21:59.373Z,11.33
2019-03-06T10:24:27.759Z,11.50
2019-03-06T10:27:15.276Z,12.27
2019-03-06T10:29:43.686Z,10.10
2019-03-06T10:40:49.608Z,8.90
2019-03-06T10:43:37.131Z,9.57
2019-03-06T10:48:53.353Z,8.90
2019-03-06T10:51:41.247Z,9.63
2019-03-06T10:54:09.657Z,8.83
2019-03-06T10:59:25.502Z,7.87
2019-03-06T11:02:13.017Z,9.13
2019-03-06T11:05:21.607Z,8.47
2019-03-06T11:08:29.991Z,7.73
2019-03-06T11:10:58.526Z,7.33
2019-03-06T11:13:26.923Z,7.53
2019-03-06T11:15:56.092Z,7.53
2019-03-06T11:19:05.366Z,7.60
2019-03-06T11:25:01.013Z,6.87
2019-03-06T11:27:29.411Z,7.43
2019-03-06T11:30:17.094Z,6.17
2019-03-06T11:33:04.733Z,6.90
2019-03-06T11:39:07.431Z,6.13
2019-03-06T11:42:17.455Z,6.57
2019-03-06T11:47:20.147Z,5.70
2019-03-06T11:49:48.555Z,5.27
2019-03-06T11:52:16.954Z,6.00
2019-03-06T11:55:06.275Z,5.17
2019-03-06T12:01:02.473Z,5.87
2019-03-06T12:03:50.190Z,5.77
2019-03-06T12:06:18.597Z,5.53
2019-03-06T12:12:14.418Z,5.10
2019-03-06T12:15:02.066Z,4.10
2019-03-06T12:20:17.903Z,5.50
2019-03-06T12:22:46.293Z,5.20
2019-03-06T12:25:54.608Z,4.80
2019-03-06T12:31:50.316Z,5.43
2019-03-06T12:37:26.779Z,6.23
2019-03-06T12:40:14.890Z,5.80
2019-03-06T12:48:25.603Z,6.70
2019-03-06T12:51:13.259Z,6.27
2019-03-06T12:53:41.658Z,6.97
2019-03-06T12:56:29.546Z,6.80
2019-03-06T12:58:57.940Z,7.13
2019-03-06T13:04:20.736Z,6.23
2019-03-06T13:07:08.515Z,6.17
2019-03-06T13:09:37.674Z,5.80
2019-03-06T13:14:40.925Z,5.50
2019-03-06T13:20:43.652Z,5.57
2019-03-06T13:23:12.046Z,5.60
2019-03-06T13:25:40.441Z,4.97
2019-03-06T13:28:10.563Z,6.60
2019-03-06T13:31:18.879Z,5.63
2019-03-06T13:34:06.392Z,4.80
2019-03-06T13:36:34.795Z,6.07
2019-03-06T13:42:30.504Z,5.90
2019-03-06T13:44:58.897Z,5.13
2019-03-06T13:47:46.541Z,4.43
2019-03-06T13:50:54.841Z,4.80
2019-03-06T13:53:24.967Z,5.97
2019-03-06T13:55:53.361Z,5.07
2019-03-06T13:58:21.768Z,5.20
2019-03-06T14:00:50.157Z,4.60
2019-03-06T14:03:18.564Z,4.70
2019-03-06T14:05:46.958Z,4.30
2019-03-06T14:10:49.551Z,3.73
2019-03-06T14:13:37.197Z,4.63
2019-03-06T14:19:13.741Z,5.10
2019-03-06T14:21:42.147Z,4.60
2019-03-06T14:24:29.650Z,3.90
2019-03-06T14:27:17.298Z,3.50
2019-03-06T14:32:53.775Z,3.70
2019-03-06T14:41:44.736Z,3.20
2019-03-06T14:44:13.144Z,3.00
2019-03-06T14:47:00.655Z,3.33
2019-03-06T14:52:23.505Z,2.73
2019-03-06T14:55:11.142Z,2.33
2019-03-06T14:57:58.795Z,2.50
2019-03-06T15:00:46.601Z,2.27
2019-03-06T15:03:14.998Z,2.30
2019-03-06T15:05:47.173Z,2.60
2019-03-06T15:08:32.759Z,3.10
2019-03-06T15:11:01.154Z,2.27
2019-03-06T15:13:29.567Z,2.60
2019-03-06T15:15:58.033Z,2.50
2019-03-06T15:21:00.354Z,2.30
2019-03-06T15:23:47.873Z,2.50
2019-03-06T15:26:16.267Z,2.17
2019-03-06T15:29:24.595Z,2.10
2019-03-06T15:32:32.982Z,2.80
2019-03-06T15:35:01.398Z,3.20
2019-03-06T15:37:29.783Z,3.20
2019-03-06T15:43:13.818Z,2.70
2019-03-06T15:45:42.211Z,2.40
2019-03-06T15:48:10.611Z,2.50
2019-03-06T15:53:47.070Z,2.37
2019-03-06T15:56:15.466Z,2.07
2019-03-06T16:01:57.533Z,2.40
2019-03-06T16:04:25.939Z,2.20
2019-03-06T16:07:13.458Z,2.40
2019-03-06T16:10:00.983Z,2.80
2019-03-06T16:12:29.369Z,2.47
2019-03-06T16:14:57.774Z,2.30
2019-03-06T16:18:06.083Z,2.50
2019-03-06T16:21:14.404Z,4.30
2019-03-06T16:23:42.810Z,2.93
2019-03-06T16:28:58.654Z,2.60
2019-03-06T16:31:46.169Z,2.80
2019-03-06T16:34:33.819Z,2.87
2019-03-06T16:37:03.947Z,2.97
2019-03-06T16:39:32.355Z,3.10
2019-03-06T16:42:00.749Z,2.73
2019-03-06T16:44:48.408Z,3.30
2019-03-06T16:47:56.714Z,3.30
2019-03-06T16:51:05.035Z,3.07
2019-03-06T16:53:33.423Z,2.30
2019-03-06T16:56:01.842Z,2.60
2019-03-06T16:59:10.158Z,3.20
2019-03-06T17:01:57.967Z,2.70
2019-03-06T17:04:28.103Z,2.97
2019-03-06T17:09:43.938Z,2.97
2019-03-06T17:12:12.341Z,2.87
2019-03-06T17:14:40.738Z,3.10
2019-03-06T17:20:57.113Z,4.17
2019-03-06T17:23:25.503Z,2.93
2019-03-06T17:26:13.315Z,3.20
2019-03-06T17:28:41.705Z,2.83
2019-03-06T17:31:10.112Z,3.57
2019-03-06T17:33:38.507Z,3.50
2019-03-06T17:36:26.023Z,3.57
2019-03-06T17:38:54.427Z,3.53
2019-03-06T17:43:56.850Z,3.00
2019-03-06T17:46:25.526Z,2.87
2019-03-06T17:48:53.921Z,3.70
2019-03-06T17:51:22.333Z,4.13
2019-03-06T17:53:50.717Z,4.00
2019-03-06T17:56:38.361Z,4.27
2019-03-06T18:01:54.200Z,4.20
2019-03-06T18:04:41.837Z,4.30
2019-03-06T18:07:10.239Z,6.20
2019-03-06T18:09:38.641Z,6.67
2019-03-06T18:15:01.972Z,6.37
2019-03-06T18:17:30.362Z,5.57
2019-03-06T18:20:18.022Z,5.43
2019-03-06T18:23:05.648Z,4.33
2019-03-06T18:25:34.056Z,4.10
2019-03-06T18:28:21.567Z,4.10
2019-03-06T18:31:09.082Z,4.20
2019-03-06T18:36:44.036Z,4.77
2019-03-06T18:39:31.546Z,3.50
2019-03-06T18:44:52.877Z,3.40
2019-03-06T18:47:21.281Z,3.27
2019-03-06T18:50:08.927Z,3.83
2019-03-06T18:52:37.326Z,3.60
2019-03-06T18:55:45.639Z,2.87
2019-03-06T19:01:01.476Z,5.60
2019-03-06T19:03:29.866Z,3.70
2019-03-06T19:06:20.820Z,2.83
2019-03-06T19:09:08.338Z,3.50
2019-03-06T19:11:36.733Z,3.30
2019-03-06T19:14:45.042Z,3.30
2019-03-06T19:20:06.920Z,3.13
2019-03-06T19:22:35.330Z,11.70
2019-03-06T19:25:43.651Z,8.83
2019-03-06T19:28:31.167Z,4.63
2019-03-06T19:31:18.821Z,3.95
2019-03-06T19:33:47.216Z,8.90
2019-03-06T19:36:34.867Z,5.03
2019-03-06T19:42:11.339Z,4.60
2019-03-06T19:44:58.987Z,8.30
2019-03-06T19:48:07.295Z,3.93
2019-03-06T19:50:54.949Z,5.60
2019-03-06T19:53:23.353Z,7.20
2019-03-06T19:55:51.755Z,5.00
2019-03-06T19:59:00.057Z,5.00
2019-03-06T20:01:47.579Z,2.90
2019-03-06T20:07:22.752Z,5.00
2019-03-06T20:10:31.063Z,3.60
2019-03-06T20:13:18.810Z,2.97
2019-03-06T20:18:34.647Z,3.00
2019-03-06T20:21:22.201Z,2.90
2019-03-06T20:24:10.078Z,3.33
2019-03-06T20:26:57.669Z,3.73
2019-03-06T20:29:45.315Z,3.77
2019-03-06T20:32:13.796Z,4.63
2019-03-06T20:34:42.184Z,4.10
2019-03-06T20:37:29.845Z,3.47
2019-03-06T20:40:17.366Z,3.57
2019-03-06T20:43:25.686Z,3.10
2019-03-06T20:46:13.197Z,2.80
2019-03-06T20:48:41.602Z,3.23
2019-03-06T20:51:09.995Z,2.87
2019-03-06T20:53:38.427Z,2.63
2019-03-06T20:56:06.883Z,2.90
2019-03-06T20:58:35.277Z,2.43
2019-03-06T21:01:04.044Z,2.00
2019-03-06T21:03:51.559Z,2.33
2019-03-06T21:06:19.953Z,2.07
2019-03-06T21:09:07.613Z,3.07
2019-03-06T21:11:36.408Z,1.70
2019-03-06T21:14:06.132Z,2.10
2019-03-06T21:16:34.534Z,2.20
2019-03-06T21:19:22.179Z,1.83
2019-03-06T21:21:50.585Z,1.40
2019-03-06T21:24:18.983Z,1.67
2019-03-06T21:26:47.375Z,1.47
2019-03-06T21:32:08.753Z,1.40
2019-03-06T21:37:24.589Z,1.30
2019-03-06T21:40:00.364Z,1.03
2019-03-06T21:42:28.797Z,1.60
2019-03-06T21:45:16.530Z,1.30
2019-03-06T21:48:04.189Z,2.00
2019-03-06T21:50:32.584Z,2.00
2019-03-06T21:53:20.247Z,1.43
2019-03-06T21:56:07.770Z,1.30
2019-03-06T21:58:36.169Z,1.63
2019-03-06T22:01:04.569Z,1.50
2019-03-06T22:03:34.686Z,1.33
2019-03-06T22:06:03.159Z,1.30
2019-03-06T22:11:05.154Z,1.60
2019-03-06T22:13:33.562Z,1.50
2019-03-06T22:16:01.954Z,1.20
2019-03-06T22:23:59.684Z,1.40
2019-03-06T22:26:29.804Z,1.20
2019-03-06T22:29:17.323Z,1.40
2019-03-06T22:32:05.060Z,1.83
2019-03-06T22:34:52.713Z,1.30
2019-03-06T22:37:21.104Z,1.30
2019-03-06T22:40:08.753Z,1.20
2019-03-06T22:42:56.268Z,1.37
2019-03-06T22:45:43.785Z,1.23
2019-03-06T22:48:12.179Z,1.40
2019-03-06T22:50:59.699Z,1.50
2019-03-06T22:54:08.011Z,1.20
2019-03-06T22:56:36.412Z,1.70
2019-03-06T22:59:23.930Z,1.73
2019-03-06T23:02:11.705Z,1.70
2019-03-06T23:04:59.357Z,1.27
2019-03-06T23:07:27.747Z,1.10
2019-03-06T23:09:57.870Z,1.27
2019-03-06T23:12:26.259Z,1.40
2019-03-06T23:15:13.781Z,1.67
2019-03-06T23:17:42.169Z,1.30
2019-03-06T23:20:29.895Z,1.37
2019-03-06T23:22:58.285Z,1.47
2019-03-06T23:25:45.810Z,1.93
2019-03-06T23:28:14.376Z,1.37
2019-03-06T23:31:02.029Z,1.03
2019-03-06T23:33:30.422Z,1.20
2019-03-06T23:36:18.077Z,1.70
2019-03-06T23:41:33.909Z,1.73
2019-03-06T23:44:21.418Z,1.77
2019-03-06T23:49:23.566Z,1.43
2019-03-06T23:54:46.605Z,1.60
2019-03-06T23:57:15.007Z,1.50
2019-03-06T23:59:43.405Z,1.80
